Map

Track Data

SID SEASON NUMBER BASIN SUBBASIN NAME ISO_TIME NATURE LAT LON WMO_WIND WMO_PRES WMO_AGENCY TRACK_TYPE DIST2LAND LANDFALL IFLAG USA_AGENCY USA_ATCF_ID USA_LAT USA_LON USA_RECORD USA_STATUS USA_WIND USA_PRES USA_SSHS USA_R34_NE USA_R34_SE USA_R34_SW USA_R34_NW USA_R50_NE USA_R50_SE USA_R50_SW USA_R50_NW USA_R64_NE USA_R64_SE USA_R64_SW USA_R64_NW USA_POCI USA_ROCI USA_RMW USA_EYE TOKYO_LAT TOKYO_LON TOKYO_GRADE TOKYO_WIND TOKYO_PRES TOKYO_R50_DIR TOKYO_R50_LONG TOKYO_R50_SHORT TOKYO_R30_DIR TOKYO_R30_LONG TOKYO_R30_SHORT TOKYO_LAND CMA_LAT CMA_LON CMA_CAT CMA_WIND CMA_PRES HKO_LAT HKO_LON HKO_CAT HKO_WIND HKO_PRES NEWDELHI_LAT NEWDELHI_LON NEWDELHI_GRADE NEWDELHI_WIND NEWDELHI_PRES NEWDELHI_CI NEWDELHI_DP NEWDELHI_POCI REUNION_LAT REUNION_LON REUNION_TYPE REUNION_WIND REUNION_PRES REUNION_TNUM REUNION_CI REUNION_RMW REUNION_R34_NE REUNION_R34_SE REUNION_R34_SW REUNION_R34_NW REUNION_R50_NE REUNION_R50_SE REUNION_R50_SW REUNION_R50_NW REUNION_R64_NE REUNION_R64_SE REUNION_R64_SW REUNION_R64_NW BOM_LAT BOM_LON BOM_TYPE BOM_WIND BOM_PRES BOM_TNUM BOM_CI BOM_RMW BOM_R34_NE BOM_R34_SE BOM_R34_SW BOM_R34_NW BOM_R50_NE BOM_R50_SE BOM_R50_SW BOM_R50_NW BOM_R64_NE BOM_R64_SE BOM_R64_SW BOM_R64_NW BOM_ROCI BOM_POCI BOM_EYE BOM_POS_METHOD BOM_PRES_METHOD NADI_LAT NADI_LON NADI_CAT NADI_WIND NADI_PRES WELLINGTON_LAT WELLINGTON_LON WELLINGTON_WIND WELLINGTON_PRES DS824_LAT DS824_LON DS824_STAGE DS824_WIND DS824_PRES TD9636_LAT TD9636_LON TD9636_STAGE TD9636_WIND TD9636_PRES TD9635_LAT TD9635_LON TD9635_WIND TD9635_PRES TD9635_ROCI NEUMANN_LAT NEUMANN_LON NEUMANN_CLASS NEUMANN_WIND NEUMANN_PRES MLC_LAT MLC_LON MLC_CLASS MLC_WIND MLC_PRES USA_GUST BOM_GUST BOM_GUST_PER REUNION_GUST REUNION_GUST_PER USA_SEAHGT USA_SEARAD_NE USA_SEARAD_SE USA_SEARAD_SW USA_SEARAD_NW STORM_SPEED STORM_DIR
1909218N17281 1909 41 NA CS NOT_NAMED 1909-08-06 00:00:00 TS 16.6000 -79.5000 30 hurdat_atl main 213 200 O_____________ hurdat_atl AL051909 16.6000 -79.5000 TD 30 -1 9 325
1909218N17281 1909 41 NA CS NOT_NAMED 1909-08-06 03:00:00 TS 16.9526 -79.7547 main 200 192 P_____________ AL051909 16.9526 -79.7547 TD 30 -1 9 326
1909218N17281 1909 41 NA CS NOT_NAMED 1909-08-06 06:00:00 TS 17.3000 -80.0000 30 hurdat_atl main 197 191 O_____________ hurdat_atl AL051909 17.3000 -80.0000 TD 30 -1 8 326
1909218N17281 1909 41 NA CS NOT_NAMED 1909-08-06 09:00:00 TS 17.6424 -80.2352 main 201 198 P_____________ AL051909 17.6424 -80.2352 TD 30 -1 9 326
1909218N17281 1909 41 NA CS NOT_NAMED 1909-08-06 12:00:00 TS 18.0000 -80.5000 30 hurdat_atl main 223 222 O_____________ hurdat_atl AL051909 18.0000 -80.5000 TD 30 -1 9 323
1909218N17281 1909 41 NA CS NOT_NAMED 1909-08-06 15:00:00 TS 18.3925 -80.8276 main 254 254 P_____________ AL051909 18.3925 -80.8276 TD 30 -1 10 320
1909218N17281 1909 41 NA CS NOT_NAMED 1909-08-06 18:00:00 TS 18.8000 -81.2000 30 hurdat_atl main 302 276 O_____________ hurdat_atl AL051909 18.8000 -81.2000 TD 30 -1 11 318
1909218N17281 1909 41 NA CS NOT_NAMED 1909-08-06 21:00:00 TS 19.1849 -81.5779 main 276 217 P_____________ AL051909 19.1849 -81.5779 TD 32 -1 11 317
1909218N17281 1909 41 NA CS NOT_NAMED 1909-08-07 00:00:00 TS 19.6000 -82.0000 35 hurdat_atl main 217 151 O_____________ hurdat_atl AL051909 19.6000 -82.0000 TS 35 0 13 319
1909218N17281 1909 41 NA CS NOT_NAMED 1909-08-07 03:00:00 TS 20.1298 -82.4622 main 148 90 P_____________ AL051909 20.1298 -82.4622 TS 35 0 14 317
1909218N17281 1909 41 NA CS NOT_NAMED 1909-08-07 06:00:00 TS 20.6000 -83.0000 35 hurdat_atl main 91 84 O_____________ hurdat_atl AL051909 20.6000 -83.0000 TS 35 0 13 304
1909218N17281 1909 41 NA CS NOT_NAMED 1909-08-07 09:00:00 TS 20.8826 -83.6426 main 91 91 P_____________ AL051909 20.8826 -83.6426 TS 37 0 13 288
1909218N17281 1909 41 NA CS NOT_NAMED 1909-08-07 12:00:00 TS 21.0000 -84.3000 40 1004 hurdat_atl main 91 89 O_____________ hurdat_atl AL051909 21.0000 -84.3000 TS 40 1004 0 11 275
1909218N17281 1909 41 NA CS NOT_NAMED 1909-08-07 15:00:00 TS 20.9872 -84.8654 main 90 90 P_____________ AL051909 20.9872 -84.8654 TS 40 0 10 264
1909218N17281 1909 41 NA CS NOT_NAMED 1909-08-07 18:00:00 TS 20.9000 -85.4000 40 hurdat_atl main 118 85 O_____________ hurdat_atl AL051909 20.9000 -85.4000 TS 40 0 10 263
1909218N17281 1909 41 NA CS NOT_NAMED 1909-08-07 21:00:00 TS 20.8573 -85.9499 main 85 38 P_____________ AL051909 20.8573 -85.9499 TS 40 0 10 264
1909218N17281 1909 41 NA CS NOT_NAMED 1909-08-08 00:00:00 TS 20.8000 -86.5000 40 hurdat_atl main 38 10 O_____________ hurdat_atl AL051909 20.8000 -86.5000 TS 40 0 11 261
1909218N17281 1909 41 NA CS NOT_NAMED 1909-08-08 03:00:00 TS 20.7000 -87.0651 main 0 0 P_____________ AL051909 20.7000 -87.0651 TS 37 0 10 259
1909218N17281 1909 41 NA NA NOT_NAMED 1909-08-08 06:00:00 TS 20.6000 -87.6000 35 hurdat_atl main 0 0 O_____________ hurdat_atl AL051909 20.6000 -87.6000 TS 35 0 10 261
1909218N17281 1909 41 NA NA NOT_NAMED 1909-08-08 09:00:00 TS 20.5423 -88.0724 main 0 0 P_____________ AL051909 20.5423 -88.0724 TS 32 -1 8 263
1909218N17281 1909 41 NA NA NOT_NAMED 1909-08-08 12:00:00 TS 20.5000 -88.5000 30 hurdat_atl main 0 0 O_____________ hurdat_atl AL051909 20.5000 -88.5000 TD 30 -1 8 263
1909218N17281 1909 41 NA NA NOT_NAMED 1909-08-08 15:00:00 TS 20.4422 -88.8850 main 0 0 P_____________ AL051909 20.4422 -88.8850 TD 30 -1 8 262
1909218N17281 1909 41 NA NA NOT_NAMED 1909-08-08 18:00:00 TS 20.4000 -89.3000 30 hurdat_atl main 0 0 O_____________ hurdat_atl AL051909 20.4000 -89.3000 TD 30 -1 9 267
1909218N17281 1909 41 NA NA NOT_NAMED 1909-08-08 21:00:00 TS 20.3926 -89.8349 main 0 0 P_____________ AL051909 20.3926 -89.8349 TD 30 -1 10 270
1909218N17281 1909 41 NA NA NOT_NAMED 1909-08-09 00:00:00 TS 20.4000 -90.4000 30 hurdat_atl main 0 0 O_____________ hurdat_atl AL051909 20.4000 -90.4000 TD 30 -1 10 270
1909218N17281 1909 41 NA GM NOT_NAMED 1909-08-09 03:00:00 TS 20.3922 -90.9001 main 41 41 P_____________ AL051909 20.3922 -90.9001 TD 32 -1 9 270
1909218N17281 1909 41 NA GM NOT_NAMED 1909-08-09 06:00:00 TS 20.4000 -91.4000 35 hurdat_atl main 93 93 O_____________ hurdat_atl AL051909 20.4000 -91.4000 TS 35 0 10 272
1909218N17281 1909 41 NA GM NOT_NAMED 1909-08-09 09:00:00 TS 20.4197 -91.9203 main 145 145 P_____________ AL051909 20.4197 -91.9203 TS 35 0 10 276
1909218N17281 1909 41 NA GM NOT_NAMED 1909-08-09 12:00:00 TS 20.5000 -92.5000 35 hurdat_atl main 207 207 O_____________ hurdat_atl AL051909 20.5000 -92.5000 TS 35 0 12 282
1909218N17281 1909 41 NA GM NOT_NAMED 1909-08-09 15:00:00 TS 20.6624 -93.1701 main 240 240 P_____________ AL051909 20.6624 -93.1701 TS 35 0 14 287
1909218N17281 1909 41 NA GM NOT_NAMED 1909-08-09 18:00:00 TS 20.9000 -93.9000 35 hurdat_atl main 281 230 O_____________ hurdat_atl AL051909 20.9000 -93.9000 TS 35 0 15 290
1909218N17281 1909 41 NA GM NOT_NAMED 1909-08-09 21:00:00 TS 21.1697 -94.6354 main 237 196 P_____________ AL051909 21.1697 -94.6354 TS 35 0 15 293
1909218N17281 1909 41 NA GM NOT_NAMED 1909-08-10 00:00:00 TS 21.5000 -95.4000 35 hurdat_atl main 196 118 O_____________ hurdat_atl AL051909 21.5000 -95.4000 TS 35 0 16 296
1909218N17281 1909 41 NA GM NOT_NAMED 1909-08-10 03:00:00 TS 21.8923 -96.2000 main 118 76 P_____________ AL051909 21.8923 -96.2000 TS 35 0 17 298
1909218N17281 1909 41 NA GM NOT_NAMED 1909-08-10 06:00:00 TS 22.3000 -97.0000 35 hurdat_atl main 76 10 O_____________ hurdat_atl AL051909 22.3000 -97.0000 TS 35 0 16 298
1909218N17281 1909 41 NA GM NOT_NAMED 1909-08-10 09:00:00 TS 22.6572 -97.7729 main 10 0 P_____________ AL051909 22.6572 -97.7729 TS 32 -1 16 297
1909218N17281 1909 41 NA NA NOT_NAMED 1909-08-10 12:00:00 TS 23.0000 -98.5000 30 hurdat_atl main 0 0 O_____________ hurdat_atl AL051909 23.0000 -98.5000 TD 30 -1 15 298
1909218N17281 1909 41 NA NA NOT_NAMED 1909-08-10 15:00:00 TS 23.3479 -99.1668 main 0 0 P_____________ AL051909 23.3479 -99.1668 TD 27 -1 14 300
1909218N17281 1909 41 NA NA NOT_NAMED 1909-08-10 18:00:00 TS 23.7000 -99.8000 25 hurdat_atl main 0 O_____________ hurdat_atl AL051909 23.7000 -99.8000 TD 25 -1 14 301

About IBTrACS Database

This database is a web-friendly format of International Best Track Archive for Climate Stewardship (IBTrACS), a global best track data archive curated by NOAA dating back to 1842.

Updated: 2021-10-08